createdAt,value
2018-09-11T08:57:47.917Z,25.379639
2018-09-11T08:57:53.190Z,25.339355
2018-09-11T08:57:58.502Z,25.309143
2018-09-11T08:58:03.795Z,25.26886
2018-09-11T08:58:09.124Z,25.228577
2018-09-11T08:58:14.400Z,25.198364
2018-09-11T08:58:19.788Z,25.188293
2018-09-11T08:58:25.100Z,25.168152
2018-09-11T08:58:30.362Z,25.137939
2018-09-11T08:58:35.852Z,25.117798
2018-09-11T08:58:41.139Z,25.107727
2018-09-11T08:58:46.399Z,25.087585
2018-09-11T08:58:51.683Z,25.087585
2018-09-11T08:58:56.950Z,25.087585
2018-09-11T08:59:02.238Z,25.067444
2018-09-11T08:59:07.550Z,25.047302
2018-09-11T08:59:12.921Z,25.037231
2018-09-11T08:59:18.321Z,25.037231
2018-09-11T08:59:23.680Z,25.007019
2018-09-11T08:59:28.958Z,24.976807
2018-09-11T08:59:34.239Z,24.936523
2018-09-11T08:59:39.483Z,24.916382
2018-09-11T08:59:45.717Z,24.886169
2018-09-11T08:59:51.957Z,24.886169
2018-09-11T08:59:57.269Z,24.886169
2018-09-11T09:00:02.544Z,24.866028
2018-09-11T09:00:07.819Z,24.855957
2018-09-11T09:00:14.124Z,24.835815
2018-09-11T09:00:19.905Z,24.825745
2018-09-11T09:00:25.195Z,24.855957
2018-09-11T09:00:30.474Z,24.936523
2018-09-11T09:00:35.870Z,25.198364
2018-09-11T09:00:41.149Z,25.722046
2018-09-11T09:00:46.434Z,27.504578
2018-09-11T09:00:51.668Z,28.058472
2018-09-11T09:00:56.949Z,28.612366
2018-09-11T09:01:02.269Z,28.833923
2018-09-11T09:01:07.473Z,28.884277
2018-09-11T09:01:12.711Z,28.894348
2018-09-11T09:01:17.941Z,28.833923
2018-09-11T09:01:23.148Z,28.79364
2018-09-11T09:01:40.957Z,28.521729
2018-09-11T09:01:46.261Z,28.421021
2018-09-11T09:01:51.509Z,28.300171
2018-09-11T09:01:56.829Z,28.229675
2018-09-11T09:02:02.069Z,28.128967
2018-09-11T09:02:07.310Z,28.028259
2018-09-11T09:02:12.549Z,27.977905
2018-09-11T09:02:17.749Z,27.897339
2018-09-11T09:02:22.982Z,27.836914
2018-09-11T09:02:28.195Z,27.796631
2018-09-11T09:02:33.423Z,27.766418
2018-09-11T09:02:38.670Z,27.65564
2018-09-11T09:02:54.230Z,27.454224
2018-09-11T09:02:59.570Z,27.393799
2018-09-11T09:03:04.791Z,27.333374
2018-09-11T09:03:10.193Z,27.28302
2018-09-11T09:03:15.428Z,27.242737
2018-09-11T09:03:20.670Z,27.212524
2018-09-11T09:03:25.877Z,27.16217
2018-09-11T09:03:31.150Z,27.121887
2018-09-11T09:03:36.350Z,27.081604
2018-09-11T09:03:41.551Z,27.051392
2018-09-11T09:03:46.759Z,27.03125
2018-09-11T09:03:52.991Z,27.011108
2018-09-11T09:04:13.985Z,26.930542
2018-09-11T09:04:19.235Z,26.90033
2018-09-11T09:04:24.465Z,26.90033
2018-09-11T09:04:29.712Z,26.880188
2018-09-11T09:04:34.952Z,26.870117
2018-09-11T09:04:56.154Z,26.749268
2018-09-11T09:05:01.480Z,26.708984
2018-09-11T09:05:06.834Z,26.678772
2018-09-11T09:05:12.105Z,26.64856
2018-09-11T09:05:17.393Z,26.608276
2018-09-11T09:05:22.679Z,26.588135
2018-09-11T09:05:27.971Z,26.537781
2018-09-11T09:05:33.208Z,26.507568
2018-09-11T09:05:39.449Z,26.467285
2018-09-11T09:05:44.713Z,26.437073
2018-09-11T09:05:49.964Z,26.40686
2018-09-11T09:05:55.303Z,26.346436
2018-09-11T09:06:00.553Z,26.306152
2018-09-11T09:06:05.834Z,26.286011
2018-09-11T09:06:11.316Z,26.27594
2018-09-11T09:06:17.121Z,26.235657
2018-09-11T09:06:23.583Z,26.205444
2018-09-11T09:06:32.629Z,26.195374
2018-09-11T09:06:36.868Z,26.195374
2018-09-11T09:06:42.110Z,26.195374
2018-09-11T09:06:47.420Z,26.195374
2018-09-11T09:06:52.677Z,26.185303
2018-09-11T09:06:57.911Z,26.185303
2018-09-11T09:07:03.196Z,26.165161
2018-09-11T09:07:08.389Z,26.15509
2018-09-11T09:07:13.620Z,26.15509
2018-09-11T09:07:18.789Z,26.134949
2018-09-11T09:07:23.992Z,26.114807
2018-09-11T09:07:29.221Z,26.124878
2018-09-11T09:07:34.437Z,26.124878
2018-09-11T09:07:39.634Z,26.134949
2018-09-11T09:07:44.813Z,26.15509
2018-09-11T09:07:49.981Z,26.165161
2018-09-11T09:07:55.153Z,26.134949
2018-09-11T09:08:00.336Z,26.15509
2018-09-11T09:08:05.516Z,26.134949
2018-09-11T09:08:10.713Z,26.114807
2018-09-11T09:08:15.894Z,26.064453
2018-09-11T09:08:21.055Z,26.044312
2018-09-11T09:08:26.231Z,26.034241
2018-09-11T09:08:31.379Z,26.034241
2018-09-11T09:08:36.587Z,26.034241
2018-09-11T09:08:41.774Z,26.044312
2018-09-11T09:08:46.954Z,26.044312
2018-09-11T09:08:52.134Z,26.064453
2018-09-11T09:08:57.313Z,26.064453
2018-09-11T09:09:02.494Z,26.084595
2018-09-11T09:09:07.648Z,26.114807
2018-09-11T09:09:12.833Z,26.124878
2018-09-11T09:09:18.014Z,26.124878
2018-09-11T09:09:23.238Z,26.134949
2018-09-11T09:09:28.433Z,26.134949
2018-09-11T09:09:33.617Z,26.15509
2018-09-11T09:09:38.797Z,26.15509
2018-09-11T09:09:44.044Z,26.165161
2018-09-11T09:09:49.243Z,26.15509
2018-09-11T09:09:54.486Z,26.165161
2018-09-11T09:09:59.732Z,26.15509
2018-09-11T09:10:04.862Z,26.15509
2018-09-11T09:10:10.218Z,26.124878
2018-09-11T09:10:15.213Z,26.124878
2018-09-11T09:10:20.391Z,26.134949
2018-09-11T09:10:25.576Z,26.124878
2018-09-11T09:10:30.793Z,26.124878
2018-09-11T09:10:35.972Z,26.124878
2018-09-11T09:10:41.176Z,26.114807
2018-09-11T09:10:46.356Z,26.084595
2018-09-11T09:10:51.569Z,26.084595
2018-09-11T09:10:56.768Z,26.064453
2018-09-11T09:11:01.954Z,26.084595
2018-09-11T09:11:07.132Z,26.094666
2018-09-11T09:11:12.314Z,26.064453
2018-09-11T09:11:17.528Z,26.034241
2018-09-11T09:11:22.712Z,25.983887
2018-09-11T09:11:28.047Z,25.933533
2018-09-11T09:11:33.432Z,25.89325
2018-09-11T09:11:39.672Z,25.832825
2018-09-11T09:11:44.911Z,25.792542
2018-09-11T09:11:50.242Z,25.762329
2018-09-11T09:11:55.508Z,25.752258
2018-09-11T09:12:00.840Z,25.722046
2018-09-11T09:12:06.116Z,25.671692
2018-09-11T09:12:11.407Z,25.671692
2018-09-11T09:12:16.624Z,25.671692
2018-09-11T09:12:22.069Z,25.671692
2018-09-11T09:12:27.315Z,25.671692
2018-09-11T09:12:32.645Z,25.691833
2018-09-11T09:12:37.874Z,25.691833
2018-09-11T09:12:43.100Z,25.711975
2018-09-11T09:12:48.351Z,25.691833
2018-09-11T09:12:53.589Z,25.691833
2018-09-11T09:12:58.873Z,25.711975
2018-09-11T09:13:04.077Z,25.711975
2018-09-11T09:13:09.348Z,25.691833
2018-09-11T09:13:14.513Z,25.711975
2018-09-11T09:13:19.759Z,25.711975
2018-09-11T09:13:24.995Z,25.691833
2018-09-11T09:13:30.312Z,25.711975
2018-09-11T09:13:35.632Z,25.722046
2018-09-11T09:13:40.910Z,25.722046
2018-09-11T09:13:46.159Z,25.722046
2018-09-11T09:13:51.437Z,25.711975
2018-09-11T09:13:56.667Z,25.691833
2018-09-11T09:14:01.912Z,25.711975
2018-09-11T09:14:07.236Z,25.711975
2018-09-11T09:14:12.476Z,25.671692
2018-09-11T09:14:18.712Z,25.641479
2018-09-11T09:14:24.020Z,25.641479
2018-09-11T09:14:29.280Z,25.661621
2018-09-11T09:14:34.510Z,25.631409
2018-09-11T09:14:39.710Z,25.631409
2018-09-11T09:14:45.021Z,25.611267
2018-09-11T09:14:50.233Z,25.591125
2018-09-11T09:14:55.509Z,25.570984
2018-09-11T09:15:00.793Z,25.510559
2018-09-11T09:15:06.077Z,25.460205
2018-09-11T09:15:11.311Z,25.450134
2018-09-11T09:15:16.608Z,25.440063
2018-09-11T09:15:21.828Z,25.419922
2018-09-11T09:15:27.201Z,25.409851
2018-09-11T09:15:32.407Z,25.389709
2018-09-11T09:15:37.660Z,25.389709
2018-09-11T09:15:42.981Z,25.359497
2018-09-11T09:15:48.125Z,25.349426
2018-09-11T09:15:53.392Z,25.339355
2018-09-11T09:15:58.630Z,25.299072
2018-09-11T09:16:03.877Z,25.289001
2018-09-11T09:16:09.118Z,25.289001
2018-09-11T09:16:14.357Z,25.299072
2018-09-11T09:16:19.550Z,25.299072
2018-09-11T09:16:24.750Z,25.299072
2018-09-11T09:16:30.031Z,25.26886
2018-09-11T09:16:35.271Z,25.26886
2018-09-11T09:16:40.566Z,25.26886
2018-09-11T09:16:45.785Z,25.26886
2018-09-11T09:16:50.998Z,25.26886
2018-09-11T09:16:56.265Z,25.26886
2018-09-11T09:17:01.519Z,25.26886
2018-09-11T09:17:06.756Z,25.299072
2018-09-11T09:17:11.987Z,25.299072
2018-09-11T09:17:18.190Z,25.309143
2018-09-11T09:17:23.499Z,25.299072
2018-09-11T09:17:28.751Z,25.309143
2018-09-11T09:17:34.113Z,25.309143
2018-09-11T09:17:39.351Z,25.359497
2018-09-11T09:17:44.552Z,25.359497
2018-09-11T09:17:49.835Z,25.359497
2018-09-11T09:17:55.186Z,25.379639
2018-09-11T09:18:00.479Z,25.389709
2018-09-11T09:18:05.715Z,25.379639
2018-09-11T09:18:10.999Z,25.389709
2018-09-11T09:18:16.244Z,25.379639
2018-09-11T09:18:21.584Z,25.379639
2018-09-11T09:18:26.790Z,25.409851
2018-09-11T09:18:32.988Z,25.409851
2018-09-11T09:18:38.197Z,25.389709
2018-09-11T09:18:43.397Z,25.419922
2018-09-11T09:18:48.596Z,25.450134
2018-09-11T09:18:53.871Z,25.510559
2018-09-11T09:18:59.222Z,25.570984
2018-09-11T09:19:04.391Z,25.631409
2018-09-11T09:19:09.671Z,25.671692
2018-09-11T09:19:14.910Z,25.742188
2018-09-11T09:19:20.105Z,25.782471
2018-09-11T09:19:25.376Z,25.822754
2018-09-11T09:19:30.556Z,25.852966
2018-09-11T09:19:35.791Z,25.90332
2018-09-11T09:19:41.032Z,25.943604
2018-09-11T09:19:46.556Z,25.963745
2018-09-11T09:19:52.638Z,25.983887
2018-09-11T09:19:57.928Z,26.004028
2018-09-11T09:20:03.334Z,26.044312
2018-09-11T09:20:09.020Z,26.044312
2018-09-11T09:20:14.185Z,26.034241
2018-09-11T09:20:19.439Z,26.044312
2018-09-11T09:20:24.878Z,26.034241
2018-09-11T09:20:31.025Z,26.044312
2018-09-11T09:20:37.468Z,26.034241
2018-09-11T09:20:43.320Z,26.014099
2018-09-11T09:20:48.856Z,26.034241
2018-09-11T09:20:54.169Z,26.064453
2018-09-11T09:20:59.545Z,26.114807
2018-09-11T09:21:05.093Z,26.185303
2018-09-11T09:21:10.346Z,26.265869
2018-09-11T09:21:15.685Z,26.306152
2018-09-11T09:21:21.291Z,26.356506
2018-09-11T09:21:28.008Z,26.416931
2018-09-11T09:21:33.590Z,26.457214
2018-09-11T09:21:39.009Z,26.487427
2018-09-11T09:21:44.329Z,26.487427
2018-09-11T09:21:49.590Z,26.467285
2018-09-11T09:21:54.922Z,26.487427
2018-09-11T09:22:00.359Z,26.487427
2018-09-11T09:22:05.589Z,26.467285
2018-09-11T09:22:10.929Z,26.416931
2018-09-11T09:22:16.244Z,26.376648
2018-09-11T09:22:21.460Z,26.316223
2018-09-11T09:22:27.170Z,26.286011
2018-09-11T09:22:32.560Z,26.235657
2018-09-11T09:22:37.940Z,26.205444
2018-09-11T09:22:43.339Z,26.195374
2018-09-11T09:22:48.669Z,26.124878
2018-09-11T09:22:53.870Z,26.084595
2018-09-11T09:22:59.362Z,26.004028
2018-09-11T09:23:04.719Z,25.963745
2018-09-11T09:23:10.101Z,25.913391
2018-09-11T09:23:15.436Z,25.852966
2018-09-11T09:23:20.940Z,25.812683
2018-09-11T09:23:26.240Z,25.782471
2018-09-11T09:23:31.481Z,25.752258
2018-09-11T09:23:37.029Z,25.722046
2018-09-11T09:23:42.829Z,25.671692
2018-09-11T09:23:47.950Z,25.641479
2018-09-11T09:23:53.179Z,25.631409
2018-09-11T09:23:58.454Z,25.611267
2018-09-11T09:24:03.677Z,25.601196
2018-09-11T09:24:09.058Z,25.591125
2018-09-11T09:24:14.577Z,25.570984
2018-09-11T09:24:19.840Z,25.570984
2018-09-11T09:24:25.143Z,25.560913
2018-09-11T09:24:30.509Z,25.560913
2018-09-11T09:24:35.759Z,25.570984
2018-09-11T09:24:41.348Z,25.570984
2018-09-11T09:24:46.769Z,25.570984
2018-09-11T09:24:51.999Z,25.591125
2018-09-11T09:24:57.299Z,25.591125
2018-09-11T09:25:02.609Z,25.570984
2018-09-11T09:25:08.107Z,25.591125
2018-09-11T09:25:14.576Z,25.601196
2018-09-11T09:25:19.879Z,25.641479
2018-09-11T09:25:25.317Z,25.691833
2018-09-11T09:25:30.649Z,25.742188
2018-09-11T09:25:36.375Z,25.782471
2018-09-11T09:25:42.060Z,25.822754
2018-09-11T09:25:47.359Z,25.863037
2018-09-11T09:25:52.686Z,25.90332
2018-09-11T09:25:58.356Z,25.913391
2018-09-11T09:26:03.569Z,25.933533
2018-09-11T09:26:09.110Z,25.933533
2018-09-11T09:26:14.540Z,25.943604
2018-09-11T09:26:20.020Z,25.943604
2018-09-11T09:26:25.269Z,25.933533
2018-09-11T09:26:33.367Z,25.943604
2018-09-11T09:26:38.907Z,25.943604
2018-09-11T09:26:44.238Z,25.973816
2018-09-11T09:26:49.788Z,25.983887
2018-09-11T09:26:55.189Z,26.004028
2018-09-11T09:27:00.633Z,26.004028
2018-09-11T09:27:06.056Z,26.014099
2018-09-11T09:27:11.691Z,26.014099
2018-09-11T09:27:17.011Z,26.004028
2018-09-11T09:27:22.587Z,26.034241
2018-09-11T09:27:27.915Z,26.064453
2018-09-11T09:27:33.315Z,26.044312
2018-09-11T09:27:38.641Z,26.064453
2018-09-11T09:27:43.919Z,26.084595
2018-09-11T09:27:49.229Z,26.044312
2018-09-11T09:27:54.420Z,26.034241
2018-09-11T09:28:00.627Z,26.034241
2018-09-11T09:28:06.079Z,26.004028
2018-09-11T09:28:11.429Z,26.004028
2018-09-11T09:28:16.629Z,25.983887
2018-09-11T09:28:21.897Z,25.983887
2018-09-11T09:28:27.101Z,25.983887
2018-09-11T09:28:32.330Z,25.973816
2018-09-11T09:28:37.590Z,25.943604
2018-09-11T09:28:42.800Z,25.90332
2018-09-11T09:28:48.060Z,25.852966
2018-09-11T09:28:53.276Z,25.852966
2018-09-11T09:28:58.619Z,25.822754
2018-09-11T09:29:03.820Z,25.792542
2018-09-11T09:29:09.100Z,25.762329
2018-09-11T09:29:14.370Z,25.722046
2018-09-11T09:29:19.790Z,25.691833
2018-09-11T09:29:25.330Z,25.661621
2018-09-11T09:29:30.792Z,25.641479
2018-09-11T09:48:18.781Z,26.457214
2018-09-11T09:48:26.274Z,26.457214
2018-09-11T09:48:33.749Z,26.457214
2018-09-11T09:48:41.226Z,26.416931
2018-09-11T09:48:48.922Z,26.437073
2018-09-11T09:48:56.556Z,26.416931
2018-09-11T09:49:05.187Z,26.40686
2018-09-11T09:49:12.752Z,26.40686
2018-09-11T09:49:20.161Z,26.386719
2018-09-11T09:49:27.626Z,26.376648
2018-09-11T09:49:35.197Z,26.386719
2018-09-11T09:49:42.786Z,26.346436
2018-09-11T09:49:50.239Z,26.376648
2018-09-11T09:49:57.912Z,26.346436
2018-09-11T09:50:18.475Z,26.386719
2018-09-11T09:50:26.118Z,26.376648
2018-09-11T09:50:33.640Z,26.386719
2018-09-11T09:50:41.066Z,26.386719
2018-09-11T09:50:48.611Z,26.376648
2018-09-11T09:50:56.308Z,26.356506
2018-09-11T09:51:03.713Z,26.376648
2018-09-11T09:51:11.190Z,26.40686
2018-09-11T09:51:18.791Z,26.457214
2018-09-11T09:51:26.389Z,26.487427
2018-09-11T09:51:33.879Z,26.497498
2018-09-11T09:51:41.312Z,26.507568
2018-09-11T09:51:48.843Z,26.537781
2018-09-11T09:51:56.350Z,26.557922
2018-09-11T09:52:03.798Z,26.557922
2018-09-11T09:52:11.276Z,26.537781
2018-09-11T09:52:18.713Z,26.567993
2018-09-11T09:52:26.191Z,26.557922
2018-09-11T09:52:33.713Z,26.507568
2018-09-11T09:52:41.340Z,26.487427
2018-09-11T09:52:48.829Z,26.497498
2018-09-11T09:52:56.325Z,26.497498
2018-09-11T09:53:03.791Z,26.537781
2018-09-11T09:53:11.310Z,26.557922
2018-09-11T09:53:19.041Z,26.598206
2018-09-11T09:53:26.580Z,26.64856
2018-09-11T09:53:34.340Z,26.678772
2018-09-11T09:53:41.910Z,26.749268
2018-09-11T09:53:49.348Z,26.789551
2018-09-11T09:53:56.804Z,26.809692
2018-09-11T09:54:04.238Z,26.860046
2018-09-11T09:54:11.765Z,26.90033
2018-09-11T09:54:19.236Z,26.9104
2018-09-11T09:54:26.721Z,26.930542
2018-09-11T09:54:34.239Z,26.960754
2018-09-11T09:54:54.913Z,26.980896
2018-09-11T09:55:02.436Z,26.970825
2018-09-11T09:55:10.025Z,26.980896
2018-09-11T09:55:17.473Z,26.980896
2018-09-11T09:55:24.957Z,27.03125
2018-09-11T09:55:32.477Z,27.091675
2018-09-11T09:55:39.908Z,27.182312
2018-09-11T09:55:47.358Z,27.272949
2018-09-11T09:55:54.865Z,27.343445
2018-09-11T09:56:02.441Z,27.424011
2018-09-11T09:56:09.997Z,27.494507
2018-09-11T09:56:17.593Z,27.615356
2018-09-11T09:56:25.085Z,27.675781
2018-09-11T09:56:32.598Z,27.675781
2018-09-11T09:56:40.140Z,27.65564
2018-09-11T09:56:47.676Z,27.645569
2018-09-11T09:56:55.182Z,27.585144
2018-09-11T09:57:02.673Z,27.504578
2018-09-11T09:57:10.274Z,27.464294
2018-09-11T09:57:17.792Z,27.40387
2018-09-11T09:57:25.221Z,27.343445
2018-09-11T09:57:32.669Z,27.313232
2018-09-11T09:57:40.102Z,27.272949
2018-09-11T09:57:47.686Z,27.232666
2018-09-11T09:57:55.191Z,27.212524
2018-09-11T09:58:12.075Z,27.131958
2018-09-11T09:58:19.549Z,27.091675
2018-09-11T09:58:26.988Z,27.051392
2018-09-11T09:58:34.514Z,27.011108
2018-09-11T09:58:42.109Z,26.960754
2018-09-11T09:58:49.590Z,26.9104
2018-09-11T09:58:57.076Z,26.9104
2018-09-11T09:59:04.518Z,26.870117
2018-09-11T09:59:11.988Z,26.860046
2018-09-11T09:59:19.501Z,26.809692
2018-09-11T09:59:26.940Z,26.809692
2018-09-11T09:59:34.381Z,26.789551
2018-09-11T09:59:41.869Z,26.77948
2018-09-11T09:59:49.342Z,26.77948
2018-09-11T09:59:56.821Z,26.759338
2018-09-11T10:00:04.270Z,26.759338
2018-09-11T10:00:11.750Z,26.759338
2018-09-11T10:00:19.231Z,26.749268
2018-09-11T10:00:26.747Z,26.729126
2018-09-11T10:00:34.202Z,26.719055
2018-09-11T10:00:41.793Z,26.719055
2018-09-11T10:01:05.566Z,26.678772
2018-09-11T10:01:13.997Z,26.64856
2018-09-11T10:01:22.439Z,26.638489
2018-09-11T10:01:30.881Z,26.608276
2018-09-11T10:01:39.316Z,26.608276
2018-09-11T10:01:47.878Z,26.598206
2018-09-11T10:01:56.357Z,26.588135
2018-09-11T10:02:04.710Z,26.588135
2018-09-11T10:02:13.109Z,26.557922
2018-09-11T10:02:21.542Z,26.557922
2018-09-11T10:02:29.988Z,26.557922
2018-09-11T10:02:38.429Z,26.557922
2018-09-11T10:02:46.794Z,26.567993
2018-09-11T10:02:55.232Z,26.557922
2018-09-11T10:03:03.674Z,26.567993
2018-09-11T10:03:12.149Z,26.557922
2018-09-11T10:03:20.562Z,26.557922
2018-09-11T10:03:29.033Z,26.557922
2018-09-11T10:03:52.509Z,26.567993
2018-09-11T10:04:00.994Z,26.537781
2018-09-11T10:04:09.470Z,26.537781
2018-09-11T10:04:17.991Z,26.507568
2018-09-11T10:04:26.510Z,26.507568
2018-09-11T10:04:34.950Z,26.497498
2018-09-11T10:04:43.394Z,26.507568
2018-09-11T10:04:51.945Z,26.507568
2018-09-11T10:05:16.157Z,26.497498
2018-09-11T10:05:24.753Z,26.497498
2018-09-11T10:05:33.433Z,26.497498
2018-09-11T10:05:42.028Z,26.507568
2018-09-11T10:05:50.629Z,26.507568
2018-09-11T10:06:00.224Z,26.507568
2018-09-11T10:06:08.874Z,26.507568
2018-09-11T10:06:25.151Z,26.507568
2018-09-11T10:06:32.702Z,26.497498
2018-09-11T10:06:40.259Z,26.507568
2018-09-11T10:06:47.833Z,26.507568
2018-09-11T10:06:55.343Z,26.52771
2018-09-11T10:07:02.911Z,26.52771
2018-09-11T10:07:10.465Z,26.557922
2018-09-11T10:07:18.073Z,26.557922
2018-09-11T10:07:25.746Z,26.557922
2018-09-11T10:07:33.344Z,26.557922
2018-09-11T10:07:40.871Z,26.537781
2018-09-11T10:07:48.424Z,26.52771
2018-09-11T10:07:55.952Z,26.537781
2018-09-11T10:08:03.503Z,26.537781
2018-09-11T10:08:11.111Z,26.537781
2018-09-11T10:08:29.926Z,26.588135
2018-09-11T10:08:37.311Z,26.567993
2018-09-11T10:08:44.751Z,26.598206
2018-09-11T10:08:52.201Z,26.588135
2018-09-11T10:08:59.586Z,26.638489
2018-09-11T10:09:07.024Z,26.608276
2018-09-11T10:09:14.473Z,26.608276
2018-09-11T10:09:21.912Z,26.608276
2018-09-11T10:09:29.391Z,26.638489
2018-09-11T10:09:36.834Z,26.638489
2018-09-11T10:09:44.352Z,26.638489
2018-09-11T10:09:51.865Z,26.64856
2018-09-11T10:09:59.279Z,26.65863
2018-09-11T10:10:06.834Z,26.608276
2018-09-11T10:10:14.232Z,26.608276
2018-09-11T10:10:21.624Z,26.638489
2018-09-11T10:10:29.031Z,26.809692
2018-09-11T10:10:36.433Z,26.860046
2018-09-11T10:10:43.863Z,26.90033
2018-09-11T10:10:51.279Z,26.940613
2018-09-11T10:10:58.710Z,27.011108
2018-09-11T10:11:07.074Z,27.021179
2018-09-11T10:11:14.470Z,27.051392
2018-09-11T10:11:21.872Z,27.081604
2018-09-11T10:11:29.343Z,27.081604
2018-09-11T10:11:36.880Z,27.081604
2018-09-11T10:11:44.455Z,27.081604
2018-09-11T10:11:51.973Z,27.081604
2018-09-11T10:11:59.400Z,27.081604
2018-09-11T10:12:06.835Z,27.091675
2018-09-11T10:12:14.380Z,27.091675
2018-09-11T10:12:21.798Z,27.121887
2018-09-11T10:12:29.271Z,27.1521
2018-09-11T10:12:36.791Z,27.121887
2018-09-11T10:12:44.198Z,27.131958
2018-09-11T10:12:51.674Z,27.121887
2018-09-11T10:12:59.108Z,27.111816
2018-09-11T10:13:06.558Z,27.091675
2018-09-11T10:13:14.029Z,27.081604
2018-09-11T10:13:21.474Z,27.081604
2018-09-11T10:13:28.909Z,27.081604
2018-09-11T10:13:36.311Z,27.061462
2018-09-11T10:13:43.674Z,27.051392
2018-09-11T10:13:51.109Z,27.021179
2018-09-11T10:13:58.561Z,27.051392
2018-09-11T10:14:06.029Z,27.03125
2018-09-11T10:14:13.556Z,27.021179
2018-09-11T10:14:21.067Z,26.980896
2018-09-11T10:14:28.468Z,26.940613
2018-09-11T10:14:35.909Z,26.880188
2018-09-11T10:14:43.429Z,26.870117
2018-09-11T10:14:50.948Z,0
2018-09-11T10:14:58.430Z,0
2018-09-11T10:15:06.085Z,0
2018-09-11T10:16:34.717Z,26.708984
2018-09-11T10:16:42.245Z,26.688843
2018-09-11T10:16:49.717Z,26.678772
2018-09-11T10:16:57.244Z,26.708984
2018-09-11T10:17:04.742Z,26.719055
2018-09-11T10:17:12.114Z,26.729126
2018-09-11T10:17:19.565Z,26.749268
2018-09-11T10:17:27.016Z,26.759338
2018-09-11T10:17:34.489Z,26.759338
2018-09-11T10:17:41.906Z,26.77948
2018-09-11T10:17:49.431Z,26.789551
2018-09-11T10:17:56.894Z,26.77948
2018-09-11T10:18:04.402Z,26.809692
2018-09-11T10:18:11.956Z,26.809692
2018-09-11T10:18:19.478Z,26.789551
2018-09-11T10:18:26.916Z,26.809692
2018-09-11T10:18:34.239Z,26.829834
2018-09-11T10:18:41.708Z,26.839905
2018-09-11T10:18:49.118Z,26.860046
2018-09-11T10:18:56.595Z,26.860046
2018-09-11T10:19:04.038Z,26.839905
2018-09-11T10:19:11.541Z,26.839905
2018-09-11T10:19:18.993Z,26.829834
2018-09-11T10:19:26.432Z,26.789551
2018-09-11T10:19:33.886Z,26.789551
2018-09-11T10:19:41.516Z,26.77948
2018-09-11T10:20:00.789Z,26.759338
2018-09-11T10:20:08.322Z,26.759338
2018-09-11T10:20:15.828Z,26.729126
2018-09-11T10:20:23.316Z,26.729126
2018-09-11T10:20:30.746Z,26.729126
2018-09-11T10:20:39.262Z,26.719055
2018-09-11T10:20:46.677Z,26.708984
2018-09-11T10:20:54.182Z,26.688843
2018-09-11T10:21:13.749Z,26.65863
2018-09-11T10:21:21.302Z,26.64856
2018-09-11T10:21:28.871Z,26.64856
2018-09-11T10:21:36.307Z,26.638489
2018-09-11T10:21:43.709Z,26.608276
2018-09-11T10:21:51.155Z,26.588135
2018-09-11T10:21:58.593Z,26.567993
2018-09-11T10:22:06.223Z,26.588135
2018-09-11T10:22:13.725Z,26.598206
2018-09-11T10:22:21.235Z,26.598206
2018-09-11T10:22:28.629Z,26.567993
2018-09-11T10:22:35.988Z,26.537781
2018-09-11T10:22:43.596Z,26.537781
2018-09-11T10:23:02.902Z,26.567993
2018-09-11T10:23:10.302Z,26.588135
2018-09-11T10:23:17.709Z,26.588135
2018-09-11T10:23:25.096Z,26.557922
2018-09-11T10:23:32.486Z,26.537781
2018-09-11T10:23:39.842Z,26.497498
2018-09-11T10:23:47.296Z,26.52771
2018-09-11T10:23:54.699Z,26.52771
2018-09-11T10:24:02.055Z,26.557922
2018-09-11T10:24:09.461Z,26.537781
2018-09-11T10:24:16.910Z,26.557922
2018-09-11T10:24:24.322Z,26.557922
2018-09-11T10:24:31.828Z,26.537781
2018-09-11T10:24:39.203Z,26.507568
2018-09-11T10:24:46.563Z,26.52771
2018-09-11T10:24:53.931Z,26.52771
2018-09-11T10:25:01.429Z,26.52771
2018-09-11T10:25:08.935Z,26.507568
2018-09-11T10:25:16.350Z,26.497498
2018-09-11T10:25:24.061Z,26.507568
2018-09-11T10:25:31.476Z,26.507568
2018-09-11T10:25:38.840Z,26.497498
2018-09-11T10:25:46.265Z,26.52771
2018-09-11T10:25:54.154Z,26.507568
2018-09-11T10:26:01.439Z,26.537781
2018-09-11T10:26:09.022Z,26.537781
2018-09-11T10:26:16.275Z,26.537781
2018-09-11T10:26:23.647Z,26.567993
2018-09-11T10:26:31.065Z,26.567993
2018-09-11T10:26:38.483Z,26.588135
2018-09-11T10:26:46.992Z,26.598206
2018-09-11T10:26:54.435Z,26.598206
2018-09-11T10:27:01.798Z,26.588135
2018-09-11T10:27:09.161Z,26.588135
2018-09-11T10:27:16.545Z,26.608276
2018-09-11T10:27:23.953Z,26.608276
2018-09-11T10:27:31.398Z,26.608276
2018-09-11T10:27:38.917Z,26.598206
2018-09-11T10:27:46.430Z,26.598206
2018-09-11T10:27:53.810Z,26.608276
2018-09-11T10:28:01.535Z,26.64856
2018-09-11T10:28:08.992Z,26.638489
2018-09-11T10:28:16.419Z,26.64856
2018-09-11T10:28:23.789Z,26.64856
2018-09-11T10:28:31.150Z,26.64856
2018-09-11T10:28:38.612Z,26.64856
2018-09-11T10:28:45.937Z,26.65863
2018-09-11T10:28:53.629Z,26.678772
2018-09-11T10:29:00.997Z,26.678772
2018-09-11T10:29:08.288Z,26.678772
2018-09-11T10:29:15.619Z,26.65863
2018-09-11T10:29:23.011Z,26.65863
2018-09-11T10:29:30.338Z,26.688843
2018-09-11T10:29:37.793Z,26.678772
2018-09-11T10:29:45.096Z,26.688843
2018-09-11T10:29:52.454Z,26.678772
2018-09-11T10:30:00.929Z,26.678772
2018-09-11T10:30:08.253Z,26.678772
2018-09-11T10:30:15.615Z,26.678772
2018-09-11T10:30:23.899Z,26.65863
2018-09-11T10:30:31.225Z,26.64856
2018-09-11T10:30:38.742Z,26.64856
2018-09-11T10:30:46.094Z,26.678772
2018-09-11T10:30:53.537Z,26.688843
2018-09-11T10:31:00.860Z,26.688843
2018-09-11T10:31:09.320Z,26.678772
2018-09-11T10:31:16.631Z,26.678772
2018-09-11T10:31:24.140Z,26.678772
2018-09-11T10:31:47.053Z,26.65863
2018-09-11T10:32:38.019Z,26.688843
2018-09-11T10:32:46.485Z,26.708984
2018-09-11T10:32:53.965Z,26.729126
2018-09-11T10:33:02.530Z,26.729126
2018-09-11T10:33:10.642Z,26.749268
2018-09-11T10:33:18.921Z,26.749268
2018-09-11T10:33:27.339Z,26.759338
2018-09-11T10:33:36.434Z,26.759338
2018-09-11T10:33:44.178Z,26.77948
2018-09-11T10:33:52.401Z,26.77948
2018-09-11T10:34:28.108Z,26.749268
2018-09-11T10:34:47.256Z,26.678772
2018-09-11T10:34:55.355Z,26.678772
2018-09-11T10:35:03.006Z,26.65863
2018-09-11T10:35:10.742Z,26.65863
2018-09-11T10:35:18.478Z,26.678772
2018-09-11T10:35:25.925Z,26.678772
2018-09-11T10:35:33.322Z,26.688843
2018-09-11T10:35:40.789Z,26.688843
2018-09-11T10:36:06.305Z,26.678772
2018-09-11T10:36:13.887Z,26.719055
2018-09-11T10:36:21.386Z,26.719055
2018-09-11T10:36:28.684Z,26.688843
2018-09-11T10:36:36.066Z,26.708984
2018-09-11T10:37:01.216Z,26.749268
2018-09-11T10:37:24.788Z,26.729126
2018-09-11T10:37:32.415Z,26.729126
2018-09-11T10:37:40.446Z,26.759338
2018-09-11T10:37:49.587Z,26.77948